sensor_id;sensor_type;location;lat;lon;timestamp;P1;durP1;ratioP1;P2;durP2;ratioP2
6513;SDS011;3290;47.716;9.070;2023-11-21T00:01:05;7.10;;;1.57;;
6513;SDS011;3290;47.716;9.070;2023-11-21T00:03:33;6.50;;;2.00;;
6513;SDS011;3290;47.716;9.070;2023-11-21T00:05:59;7.57;;;1.77;;
6513;SDS011;3290;47.716;9.070;2023-11-21T00:08:25;8.23;;;1.60;;
6513;SDS011;3290;47.716;9.070;2023-11-21T00:10:51;2.50;;;1.40;;
6513;SDS011;3290;47.716;9.070;2023-11-21T00:13:16;10.63;;;1.90;;
6513;SDS011;3290;47.716;9.070;2023-11-21T00:15:42;9.00;;;1.57;;
6513;SDS011;3290;47.716;9.070;2023-11-21T00:18:08;5.50;;;1.70;;
6513;SDS011;3290;47.716;9.070;2023-11-21T00:20:33;12.20;;;1.83;;
6513;SDS011;3290;47.716;9.070;2023-11-21T00:22:59;12.67;;;2.20;;
6513;SDS011;3290;47.716;9.070;2023-11-21T00:25:27;5.27;;;1.53;;
6513;SDS011;3290;47.716;9.070;2023-11-21T00:27:52;1.50;;;1.10;;
6513;SDS011;3290;47.716;9.070;2023-11-21T00:30:19;3.60;;;1.33;;
6513;SDS011;3290;47.716;9.070;2023-11-21T00:32:45;16.10;;;1.37;;
6513;SDS011;3290;47.716;9.070;2023-11-21T00:35:10;7.80;;;1.40;;
6513;SDS011;3290;47.716;9.070;2023-11-21T00:37:36;8.83;;;1.40;;
6513;SDS011;3290;47.716;9.070;2023-11-21T00:40:01;7.40;;;1.70;;
6513;SDS011;3290;47.716;9.070;2023-11-21T00:42:30;4.77;;;1.50;;
6513;SDS011;3290;47.716;9.070;2023-11-21T00:44:58;7.43;;;2.10;;
6513;SDS011;3290;47.716;9.070;2023-11-21T00:47:24;7.20;;;1.70;;
6513;SDS011;3290;47.716;9.070;2023-11-21T00:49:49;3.53;;;1.50;;
6513;SDS011;3290;47.716;9.070;2023-11-21T00:52:15;3.33;;;1.57;;
6513;SDS011;3290;47.716;9.070;2023-11-21T00:54:41;8.63;;;1.87;;
6513;SDS011;3290;47.716;9.070;2023-11-21T00:57:07;6.03;;;1.47;;
6513;SDS011;3290;47.716;9.070;2023-11-21T00:59:33;4.40;;;1.60;;
6513;SDS011;3290;47.716;9.070;2023-11-21T01:01:59;10.63;;;1.83;;
6513;SDS011;3290;47.716;9.070;2023-11-21T01:04:26;3.63;;;1.30;;
6513;SDS011;3290;47.716;9.070;2023-11-21T01:06:52;6.93;;;1.43;;
6513;SDS011;3290;47.716;9.070;2023-11-21T01:09:17;6.00;;;1.70;;
6513;SDS011;3290;47.716;9.070;2023-11-21T01:11:43;8.40;;;1.60;;
6513;SDS011;3290;47.716;9.070;2023-11-21T01:14:09;7.40;;;1.33;;
6513;SDS011;3290;47.716;9.070;2023-11-21T01:16:35;6.47;;;1.50;;
6513;SDS011;3290;47.716;9.070;2023-11-21T01:19:00;10.10;;;2.00;;
6513;SDS011;3290;47.716;9.070;2023-11-21T01:21:26;7.20;;;1.77;;
6513;SDS011;3290;47.716;9.070;2023-11-21T01:23:53;2.07;;;1.13;;
6513;SDS011;3290;47.716;9.070;2023-11-21T01:26:20;10.03;;;1.70;;
6513;SDS011;3290;47.716;9.070;2023-11-21T01:28:45;2.67;;;1.20;;
6513;SDS011;3290;47.716;9.070;2023-11-21T01:31:10;10.37;;;1.70;;
6513;SDS011;3290;47.716;9.070;2023-11-21T01:33:36;5.77;;;2.50;;
6513;SDS011;3290;47.716;9.070;2023-11-21T01:36:01;2.20;;;1.33;;
6513;SDS011;3290;47.716;9.070;2023-11-21T01:38:26;5.57;;;1.60;;
6513;SDS011;3290;47.716;9.070;2023-11-21T01:40:52;4.27;;;1.30;;
6513;SDS011;3290;47.716;9.070;2023-11-21T01:43:17;9.87;;;1.60;;
6513;SDS011;3290;47.716;9.070;2023-11-21T01:45:43;4.60;;;1.60;;
6513;SDS011;3290;47.716;9.070;2023-11-21T01:48:10;2.20;;;1.47;;
6513;SDS011;3290;47.716;9.070;2023-11-21T01:50:35;5.30;;;1.30;;
6513;SDS011;3290;47.716;9.070;2023-11-21T01:53:01;3.17;;;1.33;;
6513;SDS011;3290;47.716;9.070;2023-11-21T01:55:26;16.60;;;3.43;;
6513;SDS011;3290;47.716;9.070;2023-11-21T01:57:52;5.33;;;2.20;;
6513;SDS011;3290;47.716;9.070;2023-11-21T02:00:19;10.90;;;3.00;;
6513;SDS011;3290;47.716;9.070;2023-11-21T02:02:45;3.23;;;1.40;;
6513;SDS011;3290;47.716;9.070;2023-11-21T02:05:12;18.90;;;5.80;;
6513;SDS011;3290;47.716;9.070;2023-11-21T02:07:39;12.60;;;3.30;;
6513;SDS011;3290;47.716;9.070;2023-11-21T02:10:06;9.97;;;2.57;;
6513;SDS011;3290;47.716;9.070;2023-11-21T02:12:33;5.80;;;1.90;;
6513;SDS011;3290;47.716;9.070;2023-11-21T02:14:59;15.40;;;4.20;;
6513;SDS011;3290;47.716;9.070;2023-11-21T02:17:24;19.10;;;7.07;;
6513;SDS011;3290;47.716;9.070;2023-11-21T02:19:50;5.40;;;1.80;;
6513;SDS011;3290;47.716;9.070;2023-11-21T02:22:16;6.70;;;2.00;;
6513;SDS011;3290;47.716;9.070;2023-11-21T02:24:45;9.57;;;4.00;;
6513;SDS011;3290;47.716;9.070;2023-11-21T02:27:11;14.90;;;3.73;;
6513;SDS011;3290;47.716;9.070;2023-11-21T02:29:38;4.93;;;1.60;;
6513;SDS011;3290;47.716;9.070;2023-11-21T02:32:03;11.70;;;3.07;;
6513;SDS011;3290;47.716;9.070;2023-11-21T02:34:29;5.60;;;1.43;;
6513;SDS011;3290;47.716;9.070;2023-11-21T02:36:54;5.33;;;1.60;;
6513;SDS011;3290;47.716;9.070;2023-11-21T02:39:20;8.50;;;2.00;;
6513;SDS011;3290;47.716;9.070;2023-11-21T02:41:49;8.60;;;2.53;;
6513;SDS011;3290;47.716;9.070;2023-11-21T02:44:15;8.13;;;2.87;;
6513;SDS011;3290;47.716;9.070;2023-11-21T02:46:41;6.67;;;2.10;;
6513;SDS011;3290;47.716;9.070;2023-11-21T02:49:06;7.80;;;2.70;;
6513;SDS011;3290;47.716;9.070;2023-11-21T02:51:32;13.10;;;4.00;;
6513;SDS011;3290;47.716;9.070;2023-11-21T02:53:58;11.27;;;2.30;;
6513;SDS011;3290;47.716;9.070;2023-11-21T02:56:26;10.23;;;2.50;;
6513;SDS011;3290;47.716;9.070;2023-11-21T02:58:52;12.73;;;5.03;;
6513;SDS011;3290;47.716;9.070;2023-11-21T03:01:20;9.47;;;2.63;;
6513;SDS011;3290;47.716;9.070;2023-11-21T03:03:45;3.27;;;1.77;;
6513;SDS011;3290;47.716;9.070;2023-11-21T03:06:12;8.43;;;2.37;;
6513;SDS011;3290;47.716;9.070;2023-11-21T03:08:38;9.83;;;1.87;;
6513;SDS011;3290;47.716;9.070;2023-11-21T03:11:03;2.13;;;1.10;;
6513;SDS011;3290;47.716;9.070;2023-11-21T03:13:29;2.10;;;1.00;;
6513;SDS011;3290;47.716;9.070;2023-11-21T03:15:54;2.20;;;0.97;;
6513;SDS011;3290;47.716;9.070;2023-11-21T03:18:20;3.93;;;1.20;;
6513;SDS011;3290;47.716;9.070;2023-11-21T03:20:47;8.87;;;2.20;;
6513;SDS011;3290;47.716;9.070;2023-11-21T03:23:12;5.77;;;1.60;;
6513;SDS011;3290;47.716;9.070;2023-11-21T03:25:38;9.40;;;2.73;;
6513;SDS011;3290;47.716;9.070;2023-11-21T03:28:03;13.80;;;2.60;;
6513;SDS011;3290;47.716;9.070;2023-11-21T03:30:29;10.03;;;2.33;;
6513;SDS011;3290;47.716;9.070;2023-11-21T03:32:54;1.77;;;1.17;;
6513;SDS011;3290;47.716;9.070;2023-11-21T03:35:20;2.80;;;1.20;;
6513;SDS011;3290;47.716;9.070;2023-11-21T03:37:46;5.17;;;1.93;;
6513;SDS011;3290;47.716;9.070;2023-11-21T03:40:11;4.20;;;1.00;;
6513;SDS011;3290;47.716;9.070;2023-11-21T03:42:37;4.97;;;1.83;;
6513;SDS011;3290;47.716;9.070;2023-11-21T03:45:04;3.20;;;1.50;;
6513;SDS011;3290;47.716;9.070;2023-11-21T03:47:30;8.77;;;2.80;;
6513;SDS011;3290;47.716;9.070;2023-11-21T03:49:55;4.97;;;1.73;;
6513;SDS011;3290;47.716;9.070;2023-11-21T03:52:20;7.30;;;1.30;;
6513;SDS011;3290;47.716;9.070;2023-11-21T03:54:46;5.00;;;1.83;;
6513;SDS011;3290;47.716;9.070;2023-11-21T03:57:11;5.73;;;1.37;;
6513;SDS011;3290;47.716;9.070;2023-11-21T03:59:39;5.43;;;1.30;;
6513;SDS011;3290;47.716;9.070;2023-11-21T04:02:05;9.97;;;1.90;;
6513;SDS011;3290;47.716;9.070;2023-11-21T04:04:30;1.60;;;1.03;;
6513;SDS011;3290;47.716;9.070;2023-11-21T04:06:55;9.00;;;2.40;;
6513;SDS011;3290;47.716;9.070;2023-11-21T04:09:21;4.40;;;2.00;;
6513;SDS011;3290;47.716;9.070;2023-11-21T04:11:50;8.07;;;2.17;;
6513;SDS011;3290;47.716;9.070;2023-11-21T04:14:15;12.57;;;1.93;;
6513;SDS011;3290;47.716;9.070;2023-11-21T04:16:41;3.60;;;1.90;;
6513;SDS011;3290;47.716;9.070;2023-11-21T04:19:07;6.80;;;2.30;;
6513;SDS011;3290;47.716;9.070;2023-11-21T04:21:35;9.50;;;2.60;;
6513;SDS011;3290;47.716;9.070;2023-11-21T04:24:01;10.23;;;1.67;;
6513;SDS011;3290;47.716;9.070;2023-11-21T04:26:26;2.40;;;1.37;;
6513;SDS011;3290;47.716;9.070;2023-11-21T04:28:51;11.53;;;3.87;;
6513;SDS011;3290;47.716;9.070;2023-11-21T04:31:17;6.87;;;2.40;;
6513;SDS011;3290;47.716;9.070;2023-11-21T04:33:42;11.47;;;4.70;;
6513;SDS011;3290;47.716;9.070;2023-11-21T04:36:07;6.60;;;2.47;;
6513;SDS011;3290;47.716;9.070;2023-11-21T04:38:33;6.00;;;2.33;;
6513;SDS011;3290;47.716;9.070;2023-11-21T04:40:59;2.97;;;1.37;;
6513;SDS011;3290;47.716;9.070;2023-11-21T04:43:24;3.90;;;1.20;;
6513;SDS011;3290;47.716;9.070;2023-11-21T04:45:49;7.23;;;2.00;;
6513;SDS011;3290;47.716;9.070;2023-11-21T04:48:15;8.90;;;1.40;;
6513;SDS011;3290;47.716;9.070;2023-11-21T04:50:40;2.03;;;1.10;;
6513;SDS011;3290;47.716;9.070;2023-11-21T04:53:05;1.07;;;0.80;;
6513;SDS011;3290;47.716;9.070;2023-11-21T04:55:31;1.93;;;0.93;;
6513;SDS011;3290;47.716;9.070;2023-11-21T04:57:56;4.50;;;1.00;;
6513;SDS011;3290;47.716;9.070;2023-11-21T05:00:21;5.23;;;1.67;;
6513;SDS011;3290;47.716;9.070;2023-11-21T05:02:47;1.50;;;1.10;;
6513;SDS011;3290;47.716;9.070;2023-11-21T05:05:12;2.47;;;1.00;;
6513;SDS011;3290;47.716;9.070;2023-11-21T05:07:39;0.97;;;0.87;;
6513;SDS011;3290;47.716;9.070;2023-11-21T05:10:06;2.27;;;0.93;;
6513;SDS011;3290;47.716;9.070;2023-11-21T05:12:35;2.03;;;1.03;;
6513;SDS011;3290;47.716;9.070;2023-11-21T05:15:04;1.27;;;0.90;;
6513;SDS011;3290;47.716;9.070;2023-11-21T05:17:34;4.50;;;2.63;;
6513;SDS011;3290;47.716;9.070;2023-11-21T05:20:00;1.50;;;0.80;;
6513;SDS011;3290;47.716;9.070;2023-11-21T05:22:28;6.43;;;1.50;;
6513;SDS011;3290;47.716;9.070;2023-11-21T05:24:54;4.50;;;1.53;;
6513;SDS011;3290;47.716;9.070;2023-11-21T05:27:19;2.30;;;0.90;;
6513;SDS011;3290;47.716;9.070;2023-11-21T05:29:44;1.97;;;1.00;;
6513;SDS011;3290;47.716;9.070;2023-11-21T05:32:10;7.70;;;1.20;;
6513;SDS011;3290;47.716;9.070;2023-11-21T05:34:35;3.03;;;1.50;;
6513;SDS011;3290;47.716;9.070;2023-11-21T05:37:00;8.63;;;1.33;;
6513;SDS011;3290;47.716;9.070;2023-11-21T05:39:26;9.63;;;1.20;;
6513;SDS011;3290;47.716;9.070;2023-11-21T05:41:52;2.97;;;1.53;;
6513;SDS011;3290;47.716;9.070;2023-11-21T05:44:18;3.00;;;1.20;;
6513;SDS011;3290;47.716;9.070;2023-11-21T05:46:44;1.47;;;0.90;;
6513;SDS011;3290;47.716;9.070;2023-11-21T05:49:09;6.60;;;1.80;;
6513;SDS011;3290;47.716;9.070;2023-11-21T05:51:35;5.60;;;1.40;;
6513;SDS011;3290;47.716;9.070;2023-11-21T05:54:00;4.60;;;1.40;;
6513;SDS011;3290;47.716;9.070;2023-11-21T05:56:25;1.10;;;1.00;;
6513;SDS011;3290;47.716;9.070;2023-11-21T05:58:51;9.80;;;1.33;;
6513;SDS011;3290;47.716;9.070;2023-11-21T06:01:17;5.50;;;1.63;;
6513;SDS011;3290;47.716;9.070;2023-11-21T06:03:43;2.30;;;1.40;;
6513;SDS011;3290;47.716;9.070;2023-11-21T06:06:08;4.33;;;1.10;;
6513;SDS011;3290;47.716;9.070;2023-11-21T06:08:33;4.83;;;2.30;;
6513;SDS011;3290;47.716;9.070;2023-11-21T06:10:59;5.17;;;1.47;;
6513;SDS011;3290;47.716;9.070;2023-11-21T06:13:24;2.87;;;1.20;;
6513;SDS011;3290;47.716;9.070;2023-11-21T06:15:50;7.97;;;1.67;;
6513;SDS011;3290;47.716;9.070;2023-11-21T06:18:16;4.10;;;2.27;;
6513;SDS011;3290;47.716;9.070;2023-11-21T06:20:44;4.37;;;1.23;;
6513;SDS011;3290;47.716;9.070;2023-11-21T06:23:12;4.10;;;1.17;;
6513;SDS011;3290;47.716;9.070;2023-11-21T06:25:39;5.60;;;1.43;;
6513;SDS011;3290;47.716;9.070;2023-11-21T06:28:05;4.37;;;1.53;;
6513;SDS011;3290;47.716;9.070;2023-11-21T06:30:30;5.53;;;2.00;;
6513;SDS011;3290;47.716;9.070;2023-11-21T06:32:56;2.60;;;1.30;;
6513;SDS011;3290;47.716;9.070;2023-11-21T06:35:21;3.90;;;1.53;;
6513;SDS011;3290;47.716;9.070;2023-11-21T06:37:47;2.30;;;1.63;;
6513;SDS011;3290;47.716;9.070;2023-11-21T06:40:13;3.20;;;1.50;;
6513;SDS011;3290;47.716;9.070;2023-11-21T06:42:43;8.33;;;1.30;;
6513;SDS011;3290;47.716;9.070;2023-11-21T06:45:09;4.27;;;1.40;;
6513;SDS011;3290;47.716;9.070;2023-11-21T06:47:35;3.27;;;1.63;;
6513;SDS011;3290;47.716;9.070;2023-11-21T06:50:01;4.67;;;1.83;;
6513;SDS011;3290;47.716;9.070;2023-11-21T06:52:26;4.77;;;2.37;;
6513;SDS011;3290;47.716;9.070;2023-11-21T06:54:52;10.37;;;2.67;;
6513;SDS011;3290;47.716;9.070;2023-11-21T06:57:17;9.50;;;3.80;;
6513;SDS011;3290;47.716;9.070;2023-11-21T06:59:43;10.23;;;5.23;;
6513;SDS011;3290;47.716;9.070;2023-11-21T07:02:08;21.37;;;9.43;;
6513;SDS011;3290;47.716;9.070;2023-11-21T07:04:34;43.33;;;14.27;;
6513;SDS011;3290;47.716;9.070;2023-11-21T07:07:02;32.73;;;9.77;;
6513;SDS011;3290;47.716;9.070;2023-11-21T07:09:29;13.83;;;6.60;;
6513;SDS011;3290;47.716;9.070;2023-11-21T07:11:54;30.90;;;13.10;;
6513;SDS011;3290;47.716;9.070;2023-11-21T07:14:20;10.83;;;2.30;;
6513;SDS011;3290;47.716;9.070;2023-11-21T07:16:46;15.60;;;5.83;;
6513;SDS011;3290;47.716;9.070;2023-11-21T07:19:12;5.90;;;2.20;;
6513;SDS011;3290;47.716;9.070;2023-11-21T07:21:38;2.80;;;1.30;;
6513;SDS011;3290;47.716;9.070;2023-11-21T07:24:04;11.77;;;4.17;;
6513;SDS011;3290;47.716;9.070;2023-11-21T07:26:31;17.60;;;7.43;;
6513;SDS011;3290;47.716;9.070;2023-11-21T07:28:58;17.63;;;5.97;;
6513;SDS011;3290;47.716;9.070;2023-11-21T07:31:24;53.17;;;29.60;;
6513;SDS011;3290;47.716;9.070;2023-11-21T07:33:50;28.70;;;14.80;;
6513;SDS011;3290;47.716;9.070;2023-11-21T07:36:16;15.80;;;9.37;;
6513;SDS011;3290;47.716;9.070;2023-11-21T07:38:48;7.87;;;5.13;;
6513;SDS011;3290;47.716;9.070;2023-11-21T07:41:14;8.97;;;5.57;;
6513;SDS011;3290;47.716;9.070;2023-11-21T07:43:42;11.33;;;5.43;;
6513;SDS011;3290;47.716;9.070;2023-11-21T07:46:09;13.20;;;7.07;;
6513;SDS011;3290;47.716;9.070;2023-11-21T07:48:37;4.33;;;2.10;;
6513;SDS011;3290;47.716;9.070;2023-11-21T07:51:03;5.73;;;3.67;;
6513;SDS011;3290;47.716;9.070;2023-11-21T07:53:29;9.23;;;4.73;;
6513;SDS011;3290;47.716;9.070;2023-11-21T07:55:55;4.83;;;2.93;;
6513;SDS011;3290;47.716;9.070;2023-11-21T07:58:30;5.23;;;1.93;;
6513;SDS011;3290;47.716;9.070;2023-11-21T08:00:56;5.30;;;1.53;;
6513;SDS011;3290;47.716;9.070;2023-11-21T08:03:21;7.50;;;1.73;;
6513;SDS011;3290;47.716;9.070;2023-11-21T08:05:47;7.90;;;1.67;;
6513;SDS011;3290;47.716;9.070;2023-11-21T08:08:12;1.33;;;1.17;;
6513;SDS011;3290;47.716;9.070;2023-11-21T08:10:38;5.53;;;2.70;;
6513;SDS011;3290;47.716;9.070;2023-11-21T08:13:07;2.87;;;2.30;;
6513;SDS011;3290;47.716;9.070;2023-11-21T08:15:34;2.67;;;1.70;;
6513;SDS011;3290;47.716;9.070;2023-11-21T08:18:00;8.37;;;1.97;;
6513;SDS011;3290;47.716;9.070;2023-11-21T08:20:26;11.37;;;1.43;;
6513;SDS011;3290;47.716;9.070;2023-11-21T08:22:51;1.47;;;1.20;;
6513;SDS011;3290;47.716;9.070;2023-11-21T08:25:21;2.90;;;1.10;;
6513;SDS011;3290;47.716;9.070;2023-11-21T08:27:47;2.30;;;1.10;;
6513;SDS011;3290;47.716;9.070;2023-11-21T08:30:12;2.17;;;1.30;;
6513;SDS011;3290;47.716;9.070;2023-11-21T08:32:42;6.37;;;1.80;;
6513;SDS011;3290;47.716;9.070;2023-11-21T08:35:08;3.47;;;1.40;;
6513;SDS011;3290;47.716;9.070;2023-11-21T08:37:33;6.30;;;1.63;;
6513;SDS011;3290;47.716;9.070;2023-11-21T08:40:02;1.63;;;1.00;;
6513;SDS011;3290;47.716;9.070;2023-11-21T08:42:28;2.13;;;1.00;;
6513;SDS011;3290;47.716;9.070;2023-11-21T08:44:55;1.43;;;1.03;;
6513;SDS011;3290;47.716;9.070;2023-11-21T08:47:22;3.43;;;1.30;;
6513;SDS011;3290;47.716;9.070;2023-11-21T08:49:49;3.03;;;2.10;;
6513;SDS011;3290;47.716;9.070;2023-11-21T08:52:18;2.77;;;1.50;;
6513;SDS011;3290;47.716;9.070;2023-11-21T08:54:43;10.10;;;1.50;;
6513;SDS011;3290;47.716;9.070;2023-11-21T08:57:10;2.13;;;1.50;;
6513;SDS011;3290;47.716;9.070;2023-11-21T08:59:35;2.90;;;1.30;;
6513;SDS011;3290;47.716;9.070;2023-11-21T09:02:01;1.57;;;1.20;;
6513;SDS011;3290;47.716;9.070;2023-11-21T09:04:27;4.83;;;1.60;;
6513;SDS011;3290;47.716;9.070;2023-11-21T09:06:52;2.70;;;1.70;;
6513;SDS011;3290;47.716;9.070;2023-11-21T09:09:17;3.93;;;1.17;;
6513;SDS011;3290;47.716;9.070;2023-11-21T09:11:44;3.37;;;1.30;;
6513;SDS011;3290;47.716;9.070;2023-11-21T09:14:11;5.63;;;1.53;;
6513;SDS011;3290;47.716;9.070;2023-11-21T09:16:38;6.03;;;1.77;;
6513;SDS011;3290;47.716;9.070;2023-11-21T09:19:03;1.57;;;1.30;;
6513;SDS011;3290;47.716;9.070;2023-11-21T09:21:31;1.53;;;1.43;;
6513;SDS011;3290;47.716;9.070;2023-11-21T09:23:58;11.57;;;2.67;;
6513;SDS011;3290;47.716;9.070;2023-11-21T09:26:23;3.50;;;1.37;;
6513;SDS011;3290;47.716;9.070;2023-11-21T09:28:48;8.80;;;1.80;;
6513;SDS011;3290;47.716;9.070;2023-11-21T09:31:14;4.53;;;1.40;;
6513;SDS011;3290;47.716;9.070;2023-11-21T09:33:40;7.00;;;1.80;;
6513;SDS011;3290;47.716;9.070;2023-11-21T09:36:10;1.57;;;1.20;;
6513;SDS011;3290;47.716;9.070;2023-11-21T09:38:37;3.03;;;1.30;;
6513;SDS011;3290;47.716;9.070;2023-11-21T09:41:04;3.93;;;1.67;;
6513;SDS011;3290;47.716;9.070;2023-11-21T09:43:34;2.93;;;1.47;;
6513;SDS011;3290;47.716;9.070;2023-11-21T09:46:01;3.23;;;1.53;;
6513;SDS011;3290;47.716;9.070;2023-11-21T09:48:29;2.30;;;1.70;;
6513;SDS011;3290;47.716;9.070;2023-11-21T09:50:55;2.23;;;1.47;;
6513;SDS011;3290;47.716;9.070;2023-11-21T09:53:22;4.93;;;1.63;;
6513;SDS011;3290;47.716;9.070;2023-11-21T09:55:50;2.20;;;1.60;;
6513;SDS011;3290;47.716;9.070;2023-11-21T09:58:17;3.43;;;1.43;;
6513;SDS011;3290;47.716;9.070;2023-11-21T10:00:46;5.63;;;1.27;;
6513;SDS011;3290;47.716;9.070;2023-11-21T10:03:12;1.97;;;1.50;;
6513;SDS011;3290;47.716;9.070;2023-11-21T10:05:39;2.87;;;1.63;;
6513;SDS011;3290;47.716;9.070;2023-11-21T10:08:07;3.70;;;1.40;;
6513;SDS011;3290;47.716;9.070;2023-11-21T10:10:37;7.77;;;2.17;;
6513;SDS011;3290;47.716;9.070;2023-11-21T10:13:09;1.67;;;1.23;;
6513;SDS011;3290;47.716;9.070;2023-11-21T10:15:37;4.63;;;1.50;;
6513;SDS011;3290;47.716;9.070;2023-11-21T10:18:04;3.30;;;1.50;;
6513;SDS011;3290;47.716;9.070;2023-11-21T10:20:32;1.73;;;1.10;;
6513;SDS011;3290;47.716;9.070;2023-11-21T10:23:03;6.17;;;3.27;;
6513;SDS011;3290;47.716;9.070;2023-11-21T10:25:29;2.37;;;1.80;;
6513;SDS011;3290;47.716;9.070;2023-11-21T10:27:59;5.43;;;1.37;;
6513;SDS011;3290;47.716;9.070;2023-11-21T10:30:33;3.10;;;1.20;;
6513;SDS011;3290;47.716;9.070;2023-11-21T10:33:02;5.20;;;1.20;;
6513;SDS011;3290;47.716;9.070;2023-11-21T10:35:46;1.63;;;1.07;;
6513;SDS011;3290;47.716;9.070;2023-11-21T10:38:16;19.43;;;7.70;;
6513;SDS011;3290;47.716;9.070;2023-11-21T10:40:49;2.60;;;1.90;;
6513;SDS011;3290;47.716;9.070;2023-11-21T10:43:15;3.90;;;1.27;;
6513;SDS011;3290;47.716;9.070;2023-11-21T10:45:41;4.20;;;1.37;;
6513;SDS011;3290;47.716;9.070;2023-11-21T10:48:08;4.73;;;2.20;;
6513;SDS011;3290;47.716;9.070;2023-11-21T10:50:40;3.77;;;1.30;;
6513;SDS011;3290;47.716;9.070;2023-11-21T10:53:06;3.43;;;1.33;;
6513;SDS011;3290;47.716;9.070;2023-11-21T10:55:32;2.27;;;1.17;;
6513;SDS011;3290;47.716;9.070;2023-11-21T10:58:06;1.53;;;1.17;;
6513;SDS011;3290;47.716;9.070;2023-11-21T11:00:37;5.90;;;2.03;;
6513;SDS011;3290;47.716;9.070;2023-11-21T11:03:04;1.40;;;1.10;;
6513;SDS011;3290;47.716;9.070;2023-11-21T11:05:30;1.20;;;1.00;;
6513;SDS011;3290;47.716;9.070;2023-11-21T11:08:07;1.10;;;1.00;;
6513;SDS011;3290;47.716;9.070;2023-11-21T11:10:37;5.77;;;1.40;;
6513;SDS011;3290;47.716;9.070;2023-11-21T11:13:02;1.10;;;1.00;;
6513;SDS011;3290;47.716;9.070;2023-11-21T11:15:29;3.20;;;1.30;;
6513;SDS011;3290;47.716;9.070;2023-11-21T11:17:55;2.57;;;2.33;;
6513;SDS011;3290;47.716;9.070;2023-11-21T11:20:25;4.00;;;1.50;;
6513;SDS011;3290;47.716;9.070;2023-11-21T11:23:09;2.80;;;1.43;;
6513;SDS011;3290;47.716;9.070;2023-11-21T11:28:15;1.80;;;1.10;;
6513;SDS011;3290;47.716;9.070;2023-11-21T11:38:45;2.23;;;1.57;;
6513;SDS011;3290;47.716;9.070;2023-11-21T11:41:11;2.53;;;1.77;;
6513;SDS011;3290;47.716;9.070;2023-11-21T11:43:37;1.37;;;1.17;;
6513;SDS011;3290;47.716;9.070;2023-11-21T11:46:09;2.43;;;2.17;;
6513;SDS011;3290;47.716;9.070;2023-11-21T11:48:39;3.97;;;3.63;;
6513;SDS011;3290;47.716;9.070;2023-11-21T11:51:05;5.13;;;1.00;;
6513;SDS011;3290;47.716;9.070;2023-11-21T11:53:46;2.20;;;1.63;;
6513;SDS011;3290;47.716;9.070;2023-11-21T11:56:20;0.80;;;0.80;;
6513;SDS011;3290;47.716;9.070;2023-11-21T11:58:56;6.00;;;0.93;;
6513;SDS011;3290;47.716;9.070;2023-11-21T12:01:24;7.00;;;1.10;;
6513;SDS011;3290;47.716;9.070;2023-11-21T12:07:02;1.03;;;0.90;;
6513;SDS011;3290;47.716;9.070;2023-11-21T12:09:28;1.73;;;0.77;;
6513;SDS011;3290;47.716;9.070;2023-11-21T12:11:56;0.80;;;0.80;;
6513;SDS011;3290;47.716;9.070;2023-11-21T12:14:21;1.10;;;0.90;;
6513;SDS011;3290;47.716;9.070;2023-11-21T12:16:47;1.77;;;0.80;;
6513;SDS011;3290;47.716;9.070;2023-11-21T12:19:13;1.67;;;0.80;;
6513;SDS011;3290;47.716;9.070;2023-11-21T12:21:38;1.10;;;0.70;;
6513;SDS011;3290;47.716;9.070;2023-11-21T12:24:06;1.00;;;0.90;;
6513;SDS011;3290;47.716;9.070;2023-11-21T12:26:33;1.37;;;1.27;;
6513;SDS011;3290;47.716;9.070;2023-11-21T12:29:02;3.53;;;3.30;;
6513;SDS011;3290;47.716;9.070;2023-11-21T12:31:29;0.90;;;0.80;;
6513;SDS011;3290;47.716;9.070;2023-11-21T12:33:55;0.70;;;0.63;;
6513;SDS011;3290;47.716;9.070;2023-11-21T12:36:21;0.80;;;0.80;;
6513;SDS011;3290;47.716;9.070;2023-11-21T12:38:47;1.20;;;1.00;;
6513;SDS011;3290;47.716;9.070;2023-11-21T12:41:12;2.70;;;0.90;;
6513;SDS011;3290;47.716;9.070;2023-11-21T12:43:37;1.60;;;0.90;;
6513;SDS011;3290;47.716;9.070;2023-11-21T12:46:08;1.00;;;0.73;;
6513;SDS011;3290;47.716;9.070;2023-11-21T12:48:37;2.03;;;1.00;;
6513;SDS011;3290;47.716;9.070;2023-11-21T12:51:09;1.63;;;0.80;;
6513;SDS011;3290;47.716;9.070;2023-11-21T12:53:37;0.80;;;0.70;;
6513;SDS011;3290;47.716;9.070;2023-11-21T12:56:12;1.40;;;1.20;;
6513;SDS011;3290;47.716;9.070;2023-11-21T12:58:39;1.10;;;0.90;;
6513;SDS011;3290;47.716;9.070;2023-11-21T13:01:06;1.80;;;0.93;;
6513;SDS011;3290;47.716;9.070;2023-11-21T13:03:39;2.33;;;1.10;;
6513;SDS011;3290;47.716;9.070;2023-11-21T13:06:05;3.50;;;1.30;;
6513;SDS011;3290;47.716;9.070;2023-11-21T13:08:33;2.50;;;1.10;;
6513;SDS011;3290;47.716;9.070;2023-11-21T13:10:58;3.27;;;1.10;;
6513;SDS011;3290;47.716;9.070;2023-11-21T13:13:26;5.47;;;1.17;;
6513;SDS011;3290;47.716;9.070;2023-11-21T13:15:54;2.03;;;1.13;;
6513;SDS011;3290;47.716;9.070;2023-11-21T13:18:29;2.20;;;1.43;;
6513;SDS011;3290;47.716;9.070;2023-11-21T13:21:02;2.40;;;1.23;;
6513;SDS011;3290;47.716;9.070;2023-11-21T13:23:35;1.40;;;1.10;;
6513;SDS011;3290;47.716;9.070;2023-11-21T13:26:03;1.30;;;1.20;;
6513;SDS011;3290;47.716;9.070;2023-11-21T13:28:29;2.43;;;1.37;;
6513;SDS011;3290;47.716;9.070;2023-11-21T13:30:58;4.97;;;1.50;;
6513;SDS011;3290;47.716;9.070;2023-11-21T13:33:29;1.83;;;1.23;;
6513;SDS011;3290;47.716;9.070;2023-11-21T13:35:55;3.10;;;1.03;;
6513;SDS011;3290;47.716;9.070;2023-11-21T13:38:21;2.07;;;1.50;;
6513;SDS011;3290;47.716;9.070;2023-11-21T13:40:55;3.53;;;2.00;;
6513;SDS011;3290;47.716;9.070;2023-11-21T13:43:21;1.50;;;1.40;;
6513;SDS011;3290;47.716;9.070;2023-11-21T13:45:49;6.60;;;1.10;;
6513;SDS011;3290;47.716;9.070;2023-11-21T13:48:23;1.30;;;0.97;;
6513;SDS011;3290;47.716;9.070;2023-11-21T13:50:53;4.30;;;1.20;;
6513;SDS011;3290;47.716;9.070;2023-11-21T13:53:33;6.23;;;2.60;;
6513;SDS011;3290;47.716;9.070;2023-11-21T13:56:01;1.30;;;1.10;;
6513;SDS011;3290;47.716;9.070;2023-11-21T13:58:27;2.10;;;1.10;;
6513;SDS011;3290;47.716;9.070;2023-11-21T14:01:11;1.10;;;0.83;;
6513;SDS011;3290;47.716;9.070;2023-11-21T14:04:00;1.57;;;0.90;;
6513;SDS011;3290;47.716;9.070;2023-11-21T14:06:50;1.67;;;1.00;;
6513;SDS011;3290;47.716;9.070;2023-11-21T14:09:20;1.63;;;1.23;;
6513;SDS011;3290;47.716;9.070;2023-11-21T14:11:57;0.93;;;0.70;;
6513;SDS011;3290;47.716;9.070;2023-11-21T14:14:26;1.03;;;0.93;;
6513;SDS011;3290;47.716;9.070;2023-11-21T14:16:55;2.13;;;0.87;;
6513;SDS011;3290;47.716;9.070;2023-11-21T14:19:22;0.80;;;0.80;;
6513;SDS011;3290;47.716;9.070;2023-11-21T14:21:52;1.00;;;0.80;;
6513;SDS011;3290;47.716;9.070;2023-11-21T14:24:17;0.73;;;0.73;;
6513;SDS011;3290;47.716;9.070;2023-11-21T14:26:44;1.00;;;0.80;;
6513;SDS011;3290;47.716;9.070;2023-11-21T14:29:13;1.90;;;1.20;;
6513;SDS011;3290;47.716;9.070;2023-11-21T14:31:42;3.10;;;1.03;;
6513;SDS011;3290;47.716;9.070;2023-11-21T14:34:08;2.00;;;0.80;;
6513;SDS011;3290;47.716;9.070;2023-11-21T14:36:34;2.70;;;1.10;;
6513;SDS011;3290;47.716;9.070;2023-11-21T14:39:01;3.07;;;1.30;;
6513;SDS011;3290;47.716;9.070;2023-11-21T14:41:28;2.40;;;1.93;;
6513;SDS011;3290;47.716;9.070;2023-11-21T14:43:54;3.43;;;1.83;;
6513;SDS011;3290;47.716;9.070;2023-11-21T14:46:22;3.70;;;2.00;;
6513;SDS011;3290;47.716;9.070;2023-11-21T14:48:47;3.93;;;2.27;;
6513;SDS011;3290;47.716;9.070;2023-11-21T14:51:23;2.37;;;2.17;;
6513;SDS011;3290;47.716;9.070;2023-11-21T14:53:55;3.20;;;1.60;;
6513;SDS011;3290;47.716;9.070;2023-11-21T14:56:31;2.23;;;1.43;;
6513;SDS011;3290;47.716;9.070;2023-11-21T14:58:58;1.93;;;1.20;;
6513;SDS011;3290;47.716;9.070;2023-11-21T15:01:30;2.03;;;1.40;;
6513;SDS011;3290;47.716;9.070;2023-11-21T15:04:19;1.87;;;1.60;;
6513;SDS011;3290;47.716;9.070;2023-11-21T15:07:01;2.50;;;1.30;;
6513;SDS011;3290;47.716;9.070;2023-11-21T15:09:28;2.60;;;1.47;;
6513;SDS011;3290;47.716;9.070;2023-11-21T15:11:56;2.50;;;1.80;;
6513;SDS011;3290;47.716;9.070;2023-11-21T15:14:28;4.13;;;1.90;;
6513;SDS011;3290;47.716;9.070;2023-11-21T15:16:57;5.43;;;2.40;;
6513;SDS011;3290;47.716;9.070;2023-11-21T15:19:25;2.27;;;1.77;;
6513;SDS011;3290;47.716;9.070;2023-11-21T15:21:51;3.93;;;1.33;;
6513;SDS011;3290;47.716;9.070;2023-11-21T15:24:17;2.80;;;1.53;;
6513;SDS011;3290;47.716;9.070;2023-11-21T15:26:42;2.70;;;1.43;;